| time (UTC) | temp C | wind direction | speed KPH | gust KPH | rain 1hr cm | rain 24hr cm | rain mn cm | humidity % | barometer mb |
| 20260506015515 | 19 | 0.0 | 0.0 | 0.00 | 0.00 | 0.00 | 67 | 1011.9 | |
| 20260506014515 | 19 | 0.0 | 0.0 | 0.00 | 0.00 | 0.00 | 67 | 1012.0 | |
| 20260506013515 | 19 | 0.0 | 0.0 | 0.00 | 0.00 | 0.00 | 67 | 1012.1 | |
| 20260506012515 | 19 | 0.0 | 0.0 | 0.00 | 0.00 | 0.00 | 67 | 1012.0 | |
| 20260506011535 | 20 | 0.0 | 0.0 | 0.00 | 0.00 | 0.00 | 66 | 1012.0 | |
| 20260506010555 | 20 | 0.0 | 0.0 | 0.00 | 0.00 | 0.00 | 65 | 1012.0 | |
| 20260506005515 | 20 | 0.0 | 0.0 | 0.00 | 0.00 | 0.00 | 64 | 1011.9 | |
| 20260506004515 | 20 | 0.0 | 0.0 | 0.00 | 0.00 | 0.00 | 64 | 1011.9 | |
| 20260506003515 | 21 | 0.0 | 0.0 | 0.00 | 0.00 | 0.00 | 60 | 1011.9 | |
| 20260506002515 | 21 | 0.0 | 0.0 | 0.00 | 0.00 | 0.00 | 58 | 1011.7 | |
| 20260506001515 | 21 | 0.0 | 0.0 | 0.00 | 0.00 | 0.00 | 57 | 1011.6 | |
| 20260506000517 | 21 | 0.0 | 0.0 | 0.00 | 0.00 | 0.00 | 56 | 1011.5 | |
| 20260505235516 | 22 | 0.0 | 0.0 | 0.00 | 0.00 | 0.00 | 55 | 1011.3 | |
| 20260505234517 | 22 | 0.0 | 0.0 | 0.00 | 0.00 | 0.00 | 54 | 1011.4 | |
| 20260505233517 | 23 | 0.0 | 0.0 | 0.00 | 0.00 | 0.00 | 53 | 1011.3 | |
| 20260505232517 | 23 | 0.0 | 0.0 | 0.00 | 0.00 | 0.00 | 51 | 1011.4 | |
| 20260505231517 | 23 | 0.0 | 1.6 | 0.00 | 0.00 | 0.00 | 49 | 1011.5 | |
| 20260505230557 | 24 | 0.0 | 0.0 | 0.00 | 0.00 | 0.00 | 48 | 1011.5 | |
| 20260505225517 | 25 | 0.0 | 1.6 | 0.00 | 0.00 | 0.00 | 49 | 1011.5 | |
| 20260505224517 | 25 | 338 | 1.6 | 8.0 | 0.00 | 0.00 | 0.00 | 46 | 1011.6 |
| 20260505223517 | 26 | 225 | 4.8 | 14.5 | 0.00 | 0.00 | 0.00 | 44 | 1011.7 |
| 20260505222517 | 26 | 225 | 1.6 | 8.0 | 0.00 | 0.00 | 0.00 | 44 | 1011.7 |
| 20260505221517 | 26 | 225 | 1.6 | 8.0 | 0.00 | 0.00 | 0.00 | 40 | 1011.7 |
| 20260505220517 | 26 | 180 | 1.6 | 6.4 | 0.00 | 0.00 | 0.00 | 45 | 1011.8 |
| 20260505215556 | 26 | 203 | 1.6 | 12.9 | 0.00 | 0.00 | 0.00 | 41 | 1011.6 |
| 20260505214517 | 26 | 0.0 | 1.6 | 0.00 | 0.00 | 0.00 | 44 | 1011.8 | |
| 20260505213517 | 26 | 0.0 | 6.4 | 0.00 | 0.00 | 0.00 | 43 | 1011.9 | |
| 20260505212536 | 26 | 225 | 3.2 | 9.7 | 0.00 | 0.00 | 0.00 | 42 | 1011.9 |
| 20260505211516 | 27 | 203 | 1.6 | 8.0 | 0.00 | 0.00 | 0.00 | 40 | 1011.8 |
| 20260505210517 | 27 | 225 | 1.6 | 8.0 | 0.00 | 0.00 | 0.00 | 44 | 1012.1 |
| 20260505205517 | 27 | 203 | 1.6 | 8.0 | 0.00 | 0.00 | 0.00 | 45 | 1012.1 |
| 20260505204536 | 27 | 225 | 1.6 | 6.4 | 0.00 | 0.00 | 0.00 | 40 | 1012.2 |
| 20260505203516 | 27 | 248 | 1.6 | 11.3 | 0.00 | 0.00 | 0.00 | 42 | 1012.2 |
| 20260505202516 | 27 | 293 | 1.6 | 8.0 | 0.00 | 0.00 | 0.00 | 40 | 1012.3 |
| 20260505201537 | 28 | 0.0 | 6.4 | 0.00 | 0.00 | 0.00 | 42 | 1012.6 | |
| 20260505200536 | 27 | 203 | 1.6 | 9.7 | 0.00 | 0.00 | 0.00 | 44 | 1012.7 |
| 20260505195516 | 27 | 0.0 | 3.2 | 0.00 | 0.00 | 0.00 | 40 | 1012.9 | |
| 20260505194536 | 27 | 203 | 3.2 | 8.0 | 0.00 | 0.00 | 0.00 | 42 | 1013.0 |
| 20260505193536 | 26 | 203 | 3.2 | 11.3 | 0.00 | 0.00 | 0.00 | 43 | 1013.2 |
| 20260505192536 | 26 | 293 | 3.2 | 11.3 | 0.00 | 0.00 | 0.00 | 40 | 1013.4 |
| 20260505191516 | 27 | 203 | 1.6 | 6.4 | 0.00 | 0.00 | 0.00 | 42 | 1013.4 |
| 20260505190517 | 27 | 0.0 | 4.8 | 0.00 | 0.00 | 0.00 | 42 | 1013.4 | |
| 20260505185516 | 26 | 203 | 1.6 | 9.7 | 0.00 | 0.00 | 0.00 | 45 | 1013.5 |
| 20260505184516 | 26 | 0.0 | 3.2 | 0.00 | 0.00 | 0.00 | 43 | 1013.5 | |
| 20260505183516 | 26 | 225 | 1.6 | 6.4 | 0.00 | 0.00 | 0.00 | 42 | 1013.7 |
| 20260505182516 | 26 | 180 | 1.6 | 6.4 | 0.00 | 0.00 | 0.00 | 44 | 1014.0 |
| 20260505181516 | 26 | 203 | 1.6 | 8.0 | 0.00 | 0.00 | 0.00 | 40 | 1014.4 |
| 20260505180516 | 26 | 0.0 | 6.4 | 0.00 | 0.00 | 0.00 | 46 | 1014.4 | |
| 20260505175516 | 26 | 180 | 4.8 | 11.3 | 0.00 | 0.00 | 0.00 | 46 | 1014.7 |
| 20260505174516 | 26 | 23 | 3.2 | 8.0 | 0.00 | 0.00 | 0.00 | 45 | 1014.7 |
| 20260505173516 | 26 | 180 | 1.6 | 8.0 | 0.00 | 0.00 | 0.00 | 44 | 1014.7 |
| 20260505172516 | 26 | 225 | 1.6 | 6.4 | 0.00 | 0.00 | 0.00 | 46 | 1014.6 |
| 20260505171516 | 26 | 203 | 3.2 | 9.7 | 0.00 | 0.00 | 0.00 | 45 | 1014.4 |
| 20260505170516 | 25 | 158 | 3.2 | 16.1 | 0.00 | 0.00 | 0.00 | 42 | 1014.5 |
| 20260505165516 | 25 | 225 | 1.6 | 8.0 | 0.00 | 0.00 | 0.00 | 46 | 1014.5 |
| 20260505164517 | 24 | 0.0 | 6.4 | 0.00 | 0.00 | 0.00 | 48 | 1014.8 | |
| 20260505163516 | 24 | 158 | 1.6 | 12.9 | 0.00 | 0.00 | 0.00 | 49 | 1014.7 |
| 20260505162557 | 25 | 90 | 1.6 | 12.9 | 0.00 | 0.00 | 0.00 | 51 | 1015.0 |
| 20260505161516 | 25 | 225 | 1.6 | 9.7 | 0.00 | 0.00 | 0.00 | 47 | 1015.3 |
| 20260505160516 | 25 | 225 | 1.6 | 4.8 | 0.00 | 0.00 | 0.00 | 54 | 1015.3 |
| 20260505152516 | 23 | 45 | 1.6 | 8.0 | 0.00 | 0.00 | 0.00 | 57 | 1015.6 |
| 20260505151515 | 22 | 0.0 | 3.2 | 0.00 | 0.00 | 0.00 | 60 | 1015.5 | |
| 20260505150515 | 22 | 203 | 1.6 | 8.0 | 0.00 | 0.00 | 0.00 | 63 | 1015.5 |
| 20260505140515 | 19 | 0.0 | 1.6 | 0.00 | 0.00 | 0.00 | 59 | 1015.1 | |
| 20260505124515 | 13 | 0.0 | 3.2 | 0.00 | 0.00 | 0.00 | 13 | 1014.7 | |
| 20260505123515 | 13 | 0.0 | 8.0 | 0.00 | 0.00 | 0.00 | 14 | 1014.6 | |
| 20260505122535 | 12 | 0.0 | 0.0 | 0.00 | 0.00 | 0.00 | 17 | 1014.6 | |
| 20260505121515 | 11 | 0.0 | 0.0 | 0.00 | 0.00 | 0.00 | 19 | 1014.5 | |
| 20260505120515 | 11 | 0.0 | 0.0 | 0.00 | 0.00 | 0.00 | 22 | 1014.2 | |
| 20260505115515 | 10 | 0.0 | 0.0 | 0.00 | 0.00 | 0.00 | 24 | 1014.2 | |
| 20260505114542 | 10 | 0.0 | 0.0 | 0.00 | 0.00 | 0.00 | 26 | 1014.1 | |
| 20260505113535 | 10 | 0.0 | 0.0 | 0.00 | 0.00 | 0.00 | 28 | 1014.1 | |
| 20260505112515 | 10 | 0.0 | 0.0 | 0.00 | 0.00 | 0.00 | 29 | 1014.0 | |
| 20260505111515 | 10 | 0.0 | 0.0 | 0.00 | 0.00 | 0.00 | 30 | 1014.0 | |
| 20260505110515 | 10 | 0.0 | 0.0 | 0.00 | 0.00 | 0.00 | 31 | 1014.0 | |
| 20260505101535 | 10 | 0.0 | 0.0 | 0.00 | 0.00 | 0.00 | 31 | 1013.7 | |
| 20260505100515 | 10 | 0.0 | 0.0 | 0.00 | 0.00 | 0.00 | 31 | 1013.7 | |
| 20260505095535 | 10 | 0.0 | 0.0 | 0.00 | 0.00 | 0.00 | 32 | 1013.6 | |
| 20260505094515 | 11 | 0.0 | 0.0 | 0.00 | 0.00 | 0.00 | 34 | 1013.6 | |
| 20260505093515 | 11 | 0.0 | 0.0 | 0.00 | 0.00 | 0.00 | 35 | 1013.4 | |
| 20260505092515 | 11 | 0.0 | 0.0 | 0.00 | 0.00 | 0.00 | 35 | 1013.4 | |
| 20260505091515 | 11 | 0.0 | 0.0 | 0.00 | 0.00 | 0.00 | 36 | 1013.5 | |
| 20260505090515 | 11 | 0.0 | 0.0 | 0.00 | 0.00 | 0.00 | 37 | 1013.4 | |
| 20260505085515 | 11 | 0.0 | 0.0 | 0.00 | 0.00 | 0.00 | 38 | 1013.5 | |
| 20260505084515 | 11 | 0.0 | 0.0 | 0.00 | 0.00 | 0.00 | 38 | 1013.4 | |
| 20260505083515 | 11 | 0.0 | 0.0 | 0.00 | 0.00 | 0.00 | 39 | 1013.3 | |
| 20260505082517 | 11 | 0.0 | 0.0 | 0.00 | 0.00 | 0.00 | 40 | 1013.4 | |
| 20260505081517 | 11 | 0.0 | 0.0 | 0.00 | 0.00 | 0.00 | 41 | 1013.4 | |
| 20260505080537 | 11 | 0.0 | 0.0 | 0.00 | 0.00 | 0.00 | 42 | 1013.4 | |
| 20260505075537 | 11 | 0.0 | 0.0 | 0.00 | 0.00 | 0.00 | 44 | 1013.4 | |
| 20260505074517 | 11 | 0.0 | 0.0 | 0.00 | 0.00 | 0.00 | 45 | 1013.4 | |
| 20260505073537 | 11 | 0.0 | 0.0 | 0.00 | 0.00 | 0.00 | 46 | 1013.4 | |
| 20260505072517 | 12 | 0.0 | 0.0 | 0.00 | 0.00 | 0.00 | 47 | 1013.3 | |
| 20260505071517 | 12 | 0.0 | 0.0 | 0.00 | 0.00 | 0.00 | 49 | 1013.2 | |
| 20260505070537 | 12 | 0.0 | 0.0 | 0.00 | 0.00 | 0.00 | 50 | 1013.2 | |
| 20260505065517 | 12 | 0.0 | 0.0 | 0.00 | 0.00 | 0.00 | 52 | 1013.2 | |
| 20260505064537 | 12 | 0.0 | 0.0 | 0.00 | 0.00 | 0.00 | 54 | 1013.2 | |
| 20260505063517 | 12 | 0.0 | 0.0 | 0.00 | 0.00 | 0.00 | 55 | 1013.2 | |
| 20260505062536 | 12 | 0.0 | 0.0 | 0.00 | 0.00 | 0.00 | 55 | 1013.2 | |
| 20260505061516 | 12 | 0.0 | 0.0 | 0.00 | 0.00 | 0.00 | 57 | 1013.2 | |
| 20260505060516 | 12 | 0.0 | 0.0 | 0.00 | 0.00 | 0.00 | 57 | 1013.3 | |
| 20260505055517 | 12 | 0.0 | 0.0 | 0.00 | 0.00 | 0.00 | 59 | 1013.3 | |
| 20260505054516 | 13 | 0.0 | 0.0 | 0.00 | 0.00 | 0.00 | 61 | 1013.5 | |
| 20260505053516 | 13 | 0.0 | 0.0 | 0.00 | 0.00 | 0.00 | 62 | 1013.6 | |
| 20260505052517 | 13 | 0.0 | 0.0 | 0.00 | 0.00 | 0.00 | 63 | 1013.6 | |
| 20260505051536 | 13 | 0.0 | 0.0 | 0.00 | 0.00 | 0.00 | 64 | 1013.6 | |
| 20260505050516 | 13 | 0.0 | 0.0 | 0.00 | 0.00 | 0.00 | 65 | 1013.6 | |
| 20260505041516 | 13 | 0.0 | 0.0 | 0.00 | 0.00 | 0.00 | 68 | 1013.7 | |
| 20260505040516 | 13 | 0.0 | 0.0 | 0.00 | 0.00 | 0.00 | 68 | 1013.6 | |
| 20260505035515 | 14 | 0.0 | 0.0 | 0.00 | 0.00 | 0.00 | 69 | 1013.5 | |
| 20260505034515 | 14 | 0.0 | 0.0 | 0.00 | 0.00 | 0.00 | 69 | 1013.5 | |
| 20260505033515 | 14 | 0.0 | 0.0 | 0.00 | 0.00 | 0.00 | 69 | 1013.7 | |
| 20260505032515 | 15 | 0.0 | 0.0 | 0.00 | 0.00 | 0.00 | 69 | 1013.8 | |
| 20260505031515 | 15 | 0.0 | 0.0 | 0.00 | 0.00 | 0.00 | 68 | 1013.8 | |
| 20260505030535 | 15 | 0.0 | 0.0 | 0.00 | 0.00 | 0.00 | 68 | 1013.8 | |
| 20260505025515 | 15 | 0.0 | 0.0 | 0.00 | 0.00 | 0.00 | 68 | 1013.7 | |
| 20260505024515 | 15 | 0.0 | 0.0 | 0.00 | 0.00 | 0.00 | 68 | 1013.6 | |
| 20260505023515 | 16 | 0.0 | 0.0 | 0.00 | 0.00 | 0.00 | 68 | 1013.6 | |
| 20260505022515 | 16 | 0.0 | 0.0 | 0.00 | 0.00 | 0.00 | 68 | 1013.6 | |
| 20260505021536 | 16 | 0.0 | 0.0 | 0.00 | 0.00 | 0.00 | 68 | 1013.6 | |
| 20260505020518 | 16 | 0.0 | 0.0 | 0.00 | 0.00 | 0.00 | 68 | 1013.5 |